Time,TemperatureF,DewpointF,PressureIn,WindDirection,WindDirectionDegrees,WindSpeedMPH,WindSpeedGustMPH,Humidity,HourlyPrecipIn,Conditions,Clouds,dailyrainin,SoftwareType,DateUTC
2013-05-20 00:01:00,63.7,61.6,29.54,NE,53,3.5,3.5,93,0.04,-RA,,0.00,WeatherDisplay:10.37,2013-05-20 05:01:00,
2013-05-20 00:06:00,63.7,61.6,29.54,NE,54,0.0,0.1,93,0.04,-RA,,0.00,WeatherDisplay:10.37,2013-05-20 05:06:00,
2013-05-20 00:11:00,63.5,61.4,29.54,NE,54,3.5,3.5,93,0.03,-RA,,0.00,WeatherDisplay:10.37,2013-05-20 05:11:00,
2013-05-20 00:16:00,63.5,61.4,29.55,NE,54,0.0,0.0,93,0.03,-RA,,0.00,WeatherDisplay:10.37,2013-05-20 05:16:00,
2013-05-20 00:21:00,63.4,61.3,29.55,NE,54,0.0,0.0,93,0.03,-RA,,0.00,WeatherDisplay:10.37,2013-05-20 05:21:00,
2013-05-20 00:26:00,63.4,61.3,29.55,ENE,61,2.0,2.0,93,0.03,-RA,,0.00,WeatherDisplay:10.37,2013-05-20 05:26:00,
2013-05-20 00:31:00,63.4,61.3,29.56,East,92,3.5,0.0,93,0.03,-RA,,0.00,WeatherDisplay:10.37,2013-05-20 05:31:00,
2013-05-20 00:36:00,63.4,61.3,29.56,East,92,2.3,2.3,93,0.02,-RA,,0.00,WeatherDisplay:10.37,2013-05-20 05:36:00,
2013-05-20 00:41:00,63.2,61.1,29.56,SSE,149,3.5,3.5,93,0.02,-RA,,0.00,WeatherDisplay:10.37,2013-05-20 05:41:00,
2013-05-20 00:46:00,63.2,61.4,29.57,SSE,150,3.5,3.5,94,0.01,BKN,,0.00,WeatherDisplay:10.37,2013-05-20 05:46:00,
2013-05-20 00:51:00,63.2,61.4,29.57,SSE,150,3.5,0.0,94,0.01,BKN,,0.00,WeatherDisplay:10.37,2013-05-20 05:51:00,
2013-05-20 00:56:00,63.2,61.4,29.57,SSE,150,0.0,0.0,94,0.00,BKN,,0.00,WeatherDisplay:10.37,2013-05-20 05:56:00,
2013-05-20 01:01:00,63.2,61.4,29.57,SSE,159,4.6,4.6,94,0.00,OVC,,0.00,WeatherDisplay:10.37,2013-05-20 06:01:00,
2013-05-20 01:06:00,63.2,61.4,29.57,SSW,206,5.8,5.8,94,0.01,RA,,0.01,WeatherDisplay:10.37,2013-05-20 06:06:00,
2013-05-20 01:11:00,63.2,61.1,29.57,South,180,6.9,6.9,93,0.01,RA,,0.01,WeatherDisplay:10.37,2013-05-20 06:11:00,
2013-05-20 01:16:00,63.1,61.0,29.57,South,171,6.0,6.0,93,0.01,OVC,,0.01,WeatherDisplay:10.37,2013-05-20 06:16:00,
2013-05-20 01:21:00,63.1,61.0,29.57,South,169,4.6,4.6,93,0.01,OVC,,0.01,WeatherDisplay:10.37,2013-05-20 06:21:00,
2013-05-20 01:26:00,62.9,60.8,29.57,South,169,1.1,1.1,93,0.01,OVC,,0.01,WeatherDisplay:10.37,2013-05-20 06:26:00,
2013-05-20 01:31:00,62.7,60.6,29.56,South,169,4.0,4.0,93,0.02,-RA,,0.02,WeatherDisplay:10.37,2013-05-20 06:31:00,
2013-05-20 01:36:00,62.6,60.5,29.56,South,169,3.5,3.5,93,0.02,-RA,,0.02,WeatherDisplay:10.37,2013-05-20 06:36:00,
2013-05-20 01:41:00,62.6,60.5,29.56,SSE,162,5.0,5.0,93,0.03,-RA,,0.03,WeatherDisplay:10.37,2013-05-20 06:41:00,
2013-05-20 01:46:00,62.4,60.3,29.55,SSE,157,3.0,3.0,93,0.03,RA,,0.03,WeatherDisplay:10.37,2013-05-20 06:46:00,
2013-05-20 01:51:00,62.4,60.3,29.55,South,190,3.5,3.5,93,0.04,RA,,0.04,WeatherDisplay:10.37,2013-05-20 06:51:00,
2013-05-20 01:56:00,62.4,60.3,29.55,East,101,3.5,3.5,93,0.04,RA,,0.04,WeatherDisplay:10.37,2013-05-20 06:56:00,
2013-05-20 02:01:00,62.4,60.3,29.55,ESE,111,9.2,9.2,93,0.05,-RA,,0.05,WeatherDisplay:10.37,2013-05-20 07:01:00,
2013-05-20 02:06:00,62.4,60.7,29.55,SSE,167,3.5,3.5,94,0.04,-RA,,0.05,WeatherDisplay:10.37,2013-05-20 07:06:00,
2013-05-20 02:11:00,62.4,60.7,29.55,SSE,167,3.5,3.5,94,0.04,-RA,,0.05,WeatherDisplay:10.37,2013-05-20 07:11:00,
2013-05-20 02:16:00,62.4,60.7,29.55,SSE,167,4.6,4.6,94,0.04,-RA,,0.05,WeatherDisplay:10.37,2013-05-20 07:16:00,
2013-05-20 02:21:00,62.4,60.7,29.55,SSE,167,3.5,3.5,94,0.04,-RA,,0.05,WeatherDisplay:10.37,2013-05-20 07:21:00,
2013-05-20 02:26:00,62.4,60.7,29.55,SSE,167,3.0,3.0,94,0.04,-RA,,0.05,WeatherDisplay:10.37,2013-05-20 07:26:00,
2013-05-20 02:31:00,62.4,60.7,29.55,SSE,167,1.1,0.0,94,0.03,-RA,,0.05,WeatherDisplay:10.37,2013-05-20 07:31:00,
2013-05-20 02:36:00,62.4,60.7,29.55,SSE,167,6.9,6.9,94,0.03,-RA,,0.05,WeatherDisplay:10.37,2013-05-20 07:36:00,
2013-05-20 02:41:00,62.4,60.7,29.55,South,187,9.2,9.2,94,0.03,-RA,,0.06,WeatherDisplay:10.37,2013-05-20 07:41:00,
2013-05-20 02:46:00,62.4,60.7,29.55,South,171,6.9,6.9,94,0.03,RA,,0.06,WeatherDisplay:10.37,2013-05-20 07:46:00,
2013-05-20 02:51:00,62.3,60.6,29.55,South,173,5.8,5.8,94,0.02,BKN,,0.06,WeatherDisplay:10.37,2013-05-20 07:51:00,
2013-05-20 02:56:00,62.3,60.6,29.55,South,170,6.9,6.9,94,0.02,BKN,,0.06,WeatherDisplay:10.37,2013-05-20 07:56:00,
2013-05-20 03:01:00,62.3,60.6,29.53,SSE,163,5.8,5.8,94,0.01,-DZ,,0.06,WeatherDisplay:10.37,2013-05-20 08:01:00,
2013-05-20 03:06:00,62.1,60.4,29.53,South,176,7.0,7.0,94,0.01,-DZ,,0.06,WeatherDisplay:10.37,2013-05-20 08:06:00,
2013-05-20 03:11:00,62.1,60.4,29.53,South,170,5.8,5.8,94,0.01,-DZ,,0.06,WeatherDisplay:10.37,2013-05-20 08:11:00,
2013-05-20 03:16:00,62.0,60.3,29.53,South,171,11.5,11.5,94,0.01,-DZ,,0.06,WeatherDisplay:10.37,2013-05-20 08:16:00,
2013-05-20 03:21:00,62.0,60.3,29.53,South,182,6.9,6.9,94,0.01,-DZ,,0.06,WeatherDisplay:10.37,2013-05-20 08:21:00,
2013-05-20 03:26:00,62.0,60.3,29.53,South,170,11.5,11.5,94,0.01,-DZ,,0.06,WeatherDisplay:10.37,2013-05-20 08:26:00,
2013-05-20 03:31:00,62.0,60.3,29.52,South,188,12.7,12.7,94,0.01,OVC,,0.06,WeatherDisplay:10.37,2013-05-20 08:31:00,
2013-05-20 03:36:00,62.0,60.0,29.52,South,170,11.5,11.5,93,0.01,OVC,,0.06,WeatherDisplay:10.37,2013-05-20 08:36:00,
2013-05-20 03:41:00,61.8,59.8,29.52,South,178,6.9,6.9,93,0.00,OVC,,0.06,WeatherDisplay:10.37,2013-05-20 08:41:00,
2013-05-20 03:46:00,61.8,59.8,29.51,South,175,5.8,5.8,93,0.00,OVC,,0.06,WeatherDisplay:10.37,2013-05-20 08:46:00,
2013-05-20 03:51:00,61.8,59.8,29.51,South,171,3.5,3.5,93,0.00,OVC,,0.06,WeatherDisplay:10.37,2013-05-20 08:51:00,
2013-05-20 03:56:00,61.6,59.6,29.51,South,171,3.5,3.5,93,0.00,OVC,,0.06,WeatherDisplay:10.37,2013-05-20 08:56:00,
2013-05-20 04:01:00,61.6,59.6,29.50,South,171,5.8,5.8,93,0.00,BKN,,0.06,WeatherDisplay:10.37,2013-05-20 09:01:00,
2013-05-20 04:06:00,61.6,59.6,29.50,South,169,8.1,8.1,93,0.00,BKN,,0.06,WeatherDisplay:10.37,2013-05-20 09:06:00,
2013-05-20 04:11:00,61.6,59.6,29.50,South,169,6.9,6.9,93,0.00,BKN,,0.06,WeatherDisplay:10.37,2013-05-20 09:11:00,
2013-05-20 04:16:00,61.6,59.6,29.50,South,169,4.6,4.6,93,0.00,BKN,,0.06,WeatherDisplay:10.37,2013-05-20 09:16:00,
2013-05-20 04:21:00,61.6,59.9,29.50,SSE,166,11.5,11.5,94,0.00,BKN,,0.06,WeatherDisplay:10.37,2013-05-20 09:21:00,
2013-05-20 04:26:00,61.8,60.1,29.50,South,171,7.0,7.0,94,0.00,BKN,,0.06,WeatherDisplay:10.37,2013-05-20 09:26:00,
2013-05-20 04:31:00,61.8,60.1,29.51,South,182,5.0,5.0,94,0.00,BKN,,0.06,WeatherDisplay:10.37,2013-05-20 09:31:00,
2013-05-20 04:36:00,61.6,59.9,29.51,South,171,5.8,5.8,94,0.00,BKN,,0.06,WeatherDisplay:10.37,2013-05-20 09:36:00,
2013-05-20 04:41:00,61.6,59.9,29.51,South,176,5.8,5.8,94,0.00,BKN,,0.06,WeatherDisplay:10.37,2013-05-20 09:41:00,
2013-05-20 04:46:00,61.6,59.9,29.49,South,173,3.0,3.0,94,0.00,BKN,,0.06,WeatherDisplay:10.37,2013-05-20 09:46:00,
2013-05-20 04:51:00,61.5,59.8,29.49,South,173,3.5,3.5,94,0.00,BKN,,0.06,WeatherDisplay:10.37,2013-05-20 09:51:00,
2013-05-20 04:56:00,61.5,59.8,29.49,SSE,160,6.9,6.9,94,0.00,BKN,,0.06,WeatherDisplay:10.37,2013-05-20 09:56:00,
2013-05-20 05:01:00,61.5,59.8,29.49,SSE,161,6.9,6.9,94,0.00,SCT,,0.06,WeatherDisplay:10.37,2013-05-20 10:01:00,
2013-05-20 05:06:00,61.5,59.8,29.49,South,176,5.8,5.8,94,0.00,SCT,,0.06,WeatherDisplay:10.37,2013-05-20 10:06:00,
2013-05-20 05:11:00,61.5,59.8,29.49,South,172,4.6,4.6,94,0.00,SCT,,0.06,WeatherDisplay:10.37,2013-05-20 10:11:00,
2013-05-20 05:16:00,61.5,59.8,29.49,South,172,4.6,4.6,94,0.00,SCT,,0.06,WeatherDisplay:10.37,2013-05-20 10:16:00,
2013-05-20 05:21:00,61.3,59.6,29.50,South,172,5.0,5.0,94,0.00,SCT,,0.06,WeatherDisplay:10.37,2013-05-20 10:21:00,
2013-05-20 05:26:00,61.3,59.6,29.50,South,172,5.8,5.8,94,0.00,SCT,,0.06,WeatherDisplay:10.37,2013-05-20 10:26:00,
2013-05-20 05:31:00,61.3,59.6,29.51,South,172,2.3,2.3,94,0.00,SCT,,0.06,WeatherDisplay:10.37,2013-05-20 10:31:00,
2013-05-20 05:36:00,61.2,59.5,29.51,South,172,2.3,2.3,94,0.00,SCT,,0.06,WeatherDisplay:10.37,2013-05-20 10:36:00,
2013-05-20 05:41:00,61.3,59.6,29.51,South,172,3.5,3.5,94,0.00,SCT,,0.06,WeatherDisplay:10.37,2013-05-20 10:41:00,
2013-05-20 05:46:00,61.3,59.9,29.53,South,172,3.5,3.5,95,0.00,BKN,,0.06,WeatherDisplay:10.37,2013-05-20 10:46:00,
2013-05-20 05:51:00,61.3,59.9,29.53,South,172,3.5,3.5,95,0.00,BKN,,0.06,WeatherDisplay:10.37,2013-05-20 10:51:00,
2013-05-20 05:56:00,61.3,59.9,29.53,South,172,3.5,3.5,95,0.00,BKN,,0.06,WeatherDisplay:10.37,2013-05-20 10:56:00,
2013-05-20 06:01:00,61.5,60.1,29.53,South,172,4.0,4.0,95,0.00,OVC,,0.06,WeatherDisplay:10.37,2013-05-20 11:01:00,
2013-05-20 06:06:00,61.5,60.1,29.53,South,172,6.9,6.9,95,0.00,OVC,,0.06,WeatherDisplay:10.37,2013-05-20 11:06:00,
2013-05-20 06:11:00,61.5,60.1,29.53,South,172,3.5,3.5,95,0.00,OVC,,0.06,WeatherDisplay:10.37,2013-05-20 11:11:00,
2013-05-20 06:16:00,61.5,60.1,29.53,South,172,4.6,4.6,95,0.00,OVC,,0.06,WeatherDisplay:10.37,2013-05-20 11:16:00,
2013-05-20 06:21:00,61.5,60.1,29.53,South,172,4.0,4.0,95,0.00,OVC,,0.06,WeatherDisplay:10.37,2013-05-20 11:21:00,
2013-05-20 06:26:00,61.5,60.1,29.53,SSE,159,5.8,5.8,95,0.00,OVC,,0.06,WeatherDisplay:10.37,2013-05-20 11:26:00,
2013-05-20 06:31:00,61.5,60.1,29.54,South,181,9.0,9.0,95,0.00,OVC,,0.06,WeatherDisplay:10.37,2013-05-20 11:31:00,
2013-05-20 06:36:00,61.5,60.1,29.54,South,182,8.0,8.0,95,0.00,OVC,,0.06,WeatherDisplay:10.37,2013-05-20 11:36:00,
2013-05-20 06:41:00,61.5,59.8,29.54,South,179,6.9,6.9,94,0.00,OVC,,0.06,WeatherDisplay:10.37,2013-05-20 11:41:00,
2013-05-20 06:46:00,61.5,59.8,29.53,ESE,117,10.4,10.4,94,0.00,OVC,,0.06,WeatherDisplay:10.37,2013-05-20 11:46:00,
2013-05-20 06:51:00,61.5,59.8,29.53,South,171,10.4,10.4,94,0.00,OVC,,0.06,WeatherDisplay:10.37,2013-05-20 11:51:00,
2013-05-20 06:56:00,61.5,59.8,29.53,SSE,153,10.4,10.4,94,0.00,OVC,,0.06,WeatherDisplay:10.37,2013-05-20 11:56:00,
2013-05-20 07:01:00,61.5,59.8,29.54,South,177,10.4,10.4,94,0.00,OVC,,0.06,WeatherDisplay:10.37,2013-05-20 12:01:00,
2013-05-20 07:06:00,61.5,59.5,29.54,SSE,167,10.4,10.4,93,0.00,OVC,,0.06,WeatherDisplay:10.37,2013-05-20 12:06:00,
2013-05-20 07:11:00,61.5,59.5,29.54,SSE,166,11.5,11.5,93,0.00,OVC,,0.06,WeatherDisplay:10.37,2013-05-20 12:11:00,
2013-05-20 07:16:00,61.5,59.5,29.54,South,187,11.5,11.5,93,0.00,OVC,,0.06,WeatherDisplay:10.37,2013-05-20 12:16:00,
2013-05-20 07:21:00,61.5,59.5,29.54,South,180,11.5,11.5,93,0.00,OVC,,0.06,WeatherDisplay:10.37,2013-05-20 12:21:00,
2013-05-20 07:26:00,61.6,59.6,29.54,SSE,166,10.4,10.4,93,0.00,OVC,,0.06,WeatherDisplay:10.37,2013-05-20 12:26:00,
2013-05-20 07:31:00,61.8,59.5,29.55,SSE,163,11.5,11.5,92,0.00,OVC,,0.06,WeatherDisplay:10.37,2013-05-20 12:31:00,
2013-05-20 07:36:00,62.0,59.6,29.55,SSW,205,13.0,13.0,92,0.00,OVC,,0.06,WeatherDisplay:10.37,2013-05-20 12:36:00,
2013-05-20 07:41:00,62.1,59.4,29.55,South,171,12.7,12.7,91,0.00,OVC,,0.06,WeatherDisplay:10.37,2013-05-20 12:41:00,
2013-05-20 07:46:00,62.3,59.0,29.55,SSE,156,15.0,15.0,89,0.00,BKN,,0.06,WeatherDisplay:10.37,2013-05-20 12:46:00,
2013-05-20 07:51:00,62.7,59.4,29.55,SW,229,9.2,9.3,89,0.00,BKN,,0.06,WeatherDisplay:10.37,2013-05-20 12:51:00,
2013-05-20 07:56:00,62.7,58.8,29.55,South,169,12.7,12.7,87,0.00,BKN,,0.06,WeatherDisplay:10.37,2013-05-20 12:56:00,
2013-05-20 08:01:00,63.2,58.9,29.55,SE,136,15.0,15.0,86,0.00,BKN,,0.06,WeatherDisplay:10.37,2013-05-20 13:01:00,
2013-05-20 08:06:00,63.4,58.1,29.55,South,187,16.1,16.1,83,0.00,BKN,,0.06,WeatherDisplay:10.37,2013-05-20 13:06:00,
2013-05-20 08:11:00,63.5,57.9,29.55,South,184,19.6,19.6,82,0.00,BKN,,0.06,WeatherDisplay:10.37,2013-05-20 13:11:00,
2013-05-20 08:16:00,63.9,58.3,29.55,SSE,150,12.7,12.7,82,0.00,BKN,,0.06,WeatherDisplay:10.37,2013-05-20 13:16:00,
2013-05-20 08:21:00,64.2,58.6,29.55,South,170,10.4,10.4,82,0.00,BKN,,0.06,WeatherDisplay:10.37,2013-05-20 13:21:00,
2013-05-20 08:26:00,64.3,58.3,29.55,SW,215,9.2,9.2,81,0.00,BKN,,0.06,WeatherDisplay:10.37,2013-05-20 13:26:00,
2013-05-20 08:31:00,64.5,57.8,29.55,SW,215,11.5,11.5,79,0.00,SCT,,0.06,WeatherDisplay:10.37,2013-05-20 13:31:00,
2013-05-20 08:36:00,64.7,57.3,29.55,SW,236,16.1,16.1,77,0.00,SCT,,0.06,WeatherDisplay:10.37,2013-05-20 13:36:00,
2013-05-20 08:41:00,65.0,57.2,29.55,SW,225,15.0,15.0,76,0.00,SCT,,0.06,WeatherDisplay:10.37,2013-05-20 13:41:00,
2013-05-20 08:46:00,64.7,57.0,29.55,South,172,16.1,16.1,76,0.00,SCT,,0.06,WeatherDisplay:10.37,2013-05-20 13:46:00,
2013-05-20 08:51:00,64.7,57.0,29.55,SW,224,11.5,11.5,76,0.00,SCT,,0.06,WeatherDisplay:10.37,2013-05-20 13:51:00,
2013-05-20 08:56:00,64.7,56.6,29.55,South,184,17.3,17.3,75,0.00,SCT,,0.06,WeatherDisplay:10.37,2013-05-20 13:56:00,
2013-05-20 09:01:00,65.0,56.9,29.55,SSE,163,13.8,13.8,75,0.00,SCT,,0.06,WeatherDisplay:10.37,2013-05-20 14:01:00,
2013-05-20 09:06:00,65.2,57.1,29.55,SSW,194,11.0,11.0,75,0.00,SCT,,0.06,WeatherDisplay:10.37,2013-05-20 14:06:00,
2013-05-20 09:11:00,65.6,57.5,29.55,SW,227,13.0,13.0,75,0.00,SCT,,0.06,WeatherDisplay:10.37,2013-05-20 14:11:00,
2013-05-20 09:16:00,65.8,57.3,29.55,South,175,16.1,16.1,74,0.00,SCT,,0.06,WeatherDisplay:10.37,2013-05-20 14:16:00,
2013-05-20 09:21:00,66.0,57.1,29.55,South,171,12.7,12.7,73,0.00,SCT,,0.06,WeatherDisplay:10.37,2013-05-20 14:21:00,
2013-05-20 09:26:00,66.4,57.5,29.55,South,171,15.0,15.0,73,0.00,SCT,,0.06,WeatherDisplay:10.37,2013-05-20 14:26:00,
2013-05-20 09:31:00,67.1,57.8,29.55,South,191,17.3,17.3,72,0.00,SCT,,0.06,WeatherDisplay:10.37,2013-05-20 14:31:00,
2013-05-20 09:36:00,67.1,57.8,29.55,SSE,163,13.8,13.8,72,0.00,SCT,,0.06,WeatherDisplay:10.37,2013-05-20 14:36:00,
2013-05-20 09:41:00,67.3,58.0,29.55,SSE,159,15.0,15.0,72,0.00,SCT,,0.06,WeatherDisplay:10.37,2013-05-20 14:41:00,
2013-05-20 09:46:00,67.4,57.7,29.55,South,178,11.0,11.0,71,0.00,CLR,,0.06,WeatherDisplay:10.37,2013-05-20 14:46:00,
2013-05-20 09:51:00,67.8,58.1,29.55,South,178,15.0,15.0,71,0.00,OVC,,0.06,WeatherDisplay:10.37,2013-05-20 14:51:00,
2013-05-20 09:56:00,68.1,57.5,29.55,South,182,16.1,16.1,69,0.00,CLR,,0.06,WeatherDisplay:10.37,2013-05-20 14:56:00,
2013-05-20 10:01:00,68.1,57.9,29.55,SSE,165,13.8,13.8,70,0.00,OVC,,0.06,WeatherDisplay:10.37,2013-05-20 15:01:00,
2013-05-20 10:06:00,68.4,57.8,29.54,South,183,13.8,13.8,69,0.00,BKN,,0.06,WeatherDisplay:10.37,2013-05-20 15:06:00,
2013-05-20 10:11:00,68.4,57.8,29.54,South,189,12.7,12.7,69,0.00,SCT,,0.06,WeatherDisplay:10.37,2013-05-20 15:11:00,
2013-05-20 10:16:00,68.6,58.0,29.54,SSE,162,10.4,10.4,69,0.00,SCT,,0.06,WeatherDisplay:10.37,2013-05-20 15:16:00,
2013-05-20 10:21:00,69.6,59.4,29.54,SSE,150,11.5,11.5,70,0.00,SCT,,0.06,WeatherDisplay:10.37,2013-05-20 15:21:00,
2013-05-20 10:26:00,69.9,58.9,29.54,South,171,6.9,6.9,68,0.00,SCT,,0.06,WeatherDisplay:10.37,2013-05-20 15:26:00,
2013-05-20 10:31:00,70.3,58.8,29.53,SE,146,10.4,10.4,67,0.00,SCT,,0.06,WeatherDisplay:10.37,2013-05-20 15:31:00,
2013-05-20 10:36:00,69.6,58.6,29.53,SSE,157,11.5,11.5,68,0.00,SCT,,0.06,WeatherDisplay:10.37,2013-05-20 15:36:00,
2013-05-20 10:41:00,70.1,59.5,29.53,SSE,152,11.5,11.5,69,0.00,SCT,,0.06,WeatherDisplay:10.37,2013-05-20 15:41:00,
2013-05-20 10:46:00,69.4,58.4,29.53,South,173,13.8,13.8,68,0.00,BKN,,0.06,WeatherDisplay:10.37,2013-05-20 15:46:00,
2013-05-20 10:51:00,68.9,58.7,29.53,SSE,154,15.0,15.0,70,0.00,BKN,,0.06,WeatherDisplay:10.37,2013-05-20 15:51:00,
2013-05-20 10:56:00,69.1,59.3,29.53,SSE,161,11.5,11.5,71,0.00,BKN,,0.06,WeatherDisplay:10.37,2013-05-20 15:56:00,
2013-05-20 11:01:00,68.6,58.0,29.54,South,172,24.2,24.2,69,0.00,OVC,,0.06,WeatherDisplay:10.37,2013-05-20 16:01:00,
2013-05-20 11:06:00,67.6,58.2,29.54,South,180,16.1,16.1,72,0.00,OVC,,0.06,WeatherDisplay:10.37,2013-05-20 16:06:00,
2013-05-20 11:11:00,66.8,57.9,29.54,South,172,11.5,11.5,73,0.00,OVC,,0.06,WeatherDisplay:10.37,2013-05-20 16:11:00,
2013-05-20 11:16:00,66.8,58.2,29.55,SSW,194,15.0,15.0,74,0.00,OVC,,0.06,WeatherDisplay:10.37,2013-05-20 16:16:00,
2013-05-20 11:21:00,66.8,58.6,29.55,SSW,200,15.0,15.0,75,0.00,OVC,,0.06,WeatherDisplay:10.37,2013-05-20 16:21:00,
2013-05-20 11:26:00,67.1,58.9,29.55,SSE,159,13.8,13.8,75,0.00,OVC,,0.06,WeatherDisplay:10.37,2013-05-20 16:26:00,
2013-05-20 11:31:00,66.9,58.7,29.54,South,169,6.9,6.9,75,0.00,OVC,,0.06,WeatherDisplay:10.37,2013-05-20 16:31:00,
2013-05-20 11:36:00,67.3,59.1,29.54,South,170,10.4,10.4,75,0.00,OVC,,0.06,WeatherDisplay:10.37,2013-05-20 16:36:00,
2013-05-20 11:41:00,68.1,58.7,29.54,South,184,15.0,15.0,72,0.00,OVC,,0.06,WeatherDisplay:10.37,2013-05-20 16:41:00,
2013-05-20 11:46:00,68.4,58.2,29.53,SSW,205,17.3,17.3,70,0.00,OVC,,0.06,WeatherDisplay:10.37,2013-05-20 16:46:00,
2013-05-20 11:51:00,68.8,57.8,29.53,SSW,194,17.3,17.3,68,0.00,OVC,,0.06,WeatherDisplay:10.37,2013-05-20 16:51:00,
2013-05-20 11:56:00,68.9,57.5,29.53,South,183,17.3,17.3,67,0.00,OVC,,0.06,WeatherDisplay:10.37,2013-05-20 16:56:00,
2013-05-20 12:01:00,68.8,57.4,29.53,South,189,20.7,20.7,67,0.00,BKN,,0.06,WeatherDisplay:10.37,2013-05-20 17:01:00,
2013-05-20 12:06:00,68.4,57.4,29.53,South,183,16.1,16.1,68,0.00,BKN,,0.06,WeatherDisplay:10.37,2013-05-20 17:06:00,
2013-05-20 12:11:00,68.9,58.3,29.53,SW,223,11.5,11.5,69,0.00,BKN,,0.06,WeatherDisplay:10.37,2013-05-20 17:11:00,
2013-05-20 12:16:00,69.3,58.3,29.53,South,188,11.5,11.5,68,0.00,BKN,,0.06,WeatherDisplay:10.37,2013-05-20 17:16:00,
2013-05-20 12:21:00,69.1,58.9,29.53,South,173,13.8,13.8,70,0.00,BKN,,0.06,WeatherDisplay:10.37,2013-05-20 17:21:00,
2013-05-20 12:26:00,69.1,58.9,29.53,South,178,20.0,20.0,70,0.00,BKN,,0.06,WeatherDisplay:10.37,2013-05-20 17:26:00,
2013-05-20 12:31:00,68.9,57.5,29.53,South,175,17.3,17.3,67,0.00,BKN,,0.06,WeatherDisplay:10.37,2013-05-20 17:31:00,
2013-05-20 12:36:00,68.8,57.8,29.53,SW,215,20.7,20.7,68,0.00,BKN,,0.06,WeatherDisplay:10.37,2013-05-20 17:36:00,
2013-05-20 12:41:00,68.9,57.9,29.53,SW,235,16.1,16.1,68,0.00,BKN,,0.06,WeatherDisplay:10.37,2013-05-20 17:41:00,
2013-05-20 12:46:00,67.8,59.2,29.53,WSW,252,11.5,11.5,74,0.00,BKN,,0.06,WeatherDisplay:10.37,2013-05-20 17:46:00,
2013-05-20 12:51:00,66.3,58.9,29.53,SW,227,8.1,8.1,77,0.00,BKN,,0.06,WeatherDisplay:10.37,2013-05-20 17:51:00,
2013-05-20 12:56:00,65.3,59.7,29.53,SSW,199,6.9,6.9,82,0.00,BKN,,0.06,WeatherDisplay:10.37,2013-05-20 17:56:00,
2013-05-20 13:01:00,65.2,60.6,29.54,South,174,5.8,5.8,85,0.01,-RA,,0.07,WeatherDisplay:10.37,2013-05-20 18:01:00,
2013-05-20 13:06:00,64.0,58.7,29.54,South,186,17.3,17.3,83,0.01,-RA,,0.07,WeatherDisplay:10.37,2013-05-20 18:06:00,
2013-05-20 13:11:00,63.5,58.6,29.54,SSE,167,15.0,15.0,84,0.01,-RA,,0.07,WeatherDisplay:10.37,2013-05-20 18:11:00,
2013-05-20 13:16:00,63.4,58.1,29.55,SW,219,15.0,15.0,83,0.01,-RA,,0.07,WeatherDisplay:10.37,2013-05-20 18:16:00,
2013-05-20 13:21:00,63.5,58.9,29.55,SSW,212,13.8,13.8,85,0.01,-RA,,0.07,WeatherDisplay:10.37,2013-05-20 18:21:00,
2013-05-20 13:26:00,63.9,59.3,29.55,South,191,13.8,13.8,85,0.01,-RA,,0.07,WeatherDisplay:10.37,2013-05-20 18:26:00,
2013-05-20 13:31:00,64.2,59.3,29.55,South,175,15.0,15.0,84,0.01,BKN,,0.07,WeatherDisplay:10.37,2013-05-20 18:31:00,
2013-05-20 13:36:00,65.2,60.2,29.55,SSE,164,11.5,11.5,84,0.01,BKN,,0.07,WeatherDisplay:10.37,2013-05-20 18:36:00,
2013-05-20 13:41:00,66.0,59.7,29.55,SSW,196,19.6,19.6,80,0.01,BKN,,0.07,WeatherDisplay:10.37,2013-05-20 18:41:00,
2013-05-20 13:46:00,66.8,59.7,29.55,South,190,12.7,12.7,78,0.01,BKN,,0.07,WeatherDisplay:10.37,2013-05-20 18:46:00,
2013-05-20 13:51:00,66.4,58.6,29.55,SSW,213,13.8,13.8,76,0.01,BKN,,0.07,WeatherDisplay:10.37,2013-05-20 18:51:00,
2013-05-20 13:56:00,66.4,59.0,29.55,South,179,11.5,11.5,77,0.01,BKN,,0.07,WeatherDisplay:10.37,2013-05-20 18:56:00,
2013-05-20 14:01:00,66.8,58.6,29.55,SW,235,12.7,12.7,75,0.00,BKN,,0.07,WeatherDisplay:10.37,2013-05-20 19:01:00,
2013-05-20 14:06:00,67.6,58.2,29.55,SSW,193,10.4,10.4,72,0.00,BKN,,0.07,WeatherDisplay:10.37,2013-05-20 19:06:00,
2013-05-20 14:11:00,68.3,58.9,29.55,SSW,202,13.8,13.8,72,0.00,BKN,,0.07,WeatherDisplay:10.37,2013-05-20 19:11:00,
2013-05-20 14:16:00,69.3,58.7,29.54,SSE,157,15.0,15.0,69,0.00,BKN,,0.07,WeatherDisplay:10.37,2013-05-20 19:16:00,
2013-05-20 14:21:00,69.1,58.5,29.54,WSW,257,15.0,15.0,69,0.00,BKN,,0.07,WeatherDisplay:10.37,2013-05-20 19:21:00,
2013-05-20 14:26:00,68.8,58.6,29.54,SSW,196,13.0,13.0,70,0.00,BKN,,0.07,WeatherDisplay:10.37,2013-05-20 19:26:00,
2013-05-20 14:31:00,68.8,58.6,29.54,SW,215,15.0,15.0,70,0.00,SCT,,0.07,WeatherDisplay:10.37,2013-05-20 19:31:00,
2013-05-20 14:36:00,68.8,59.4,29.54,South,175,16.1,16.1,72,0.00,SCT,,0.07,WeatherDisplay:10.37,2013-05-20 19:36:00,
2013-05-20 14:41:00,69.6,58.2,29.54,South,184,27.6,27.6,67,0.00,SCT,,0.07,WeatherDisplay:10.37,2013-05-20 19:41:00,
2013-05-20 14:46:00,70.3,57.1,29.55,SW,225,17.3,17.3,63,0.00,BKN,,0.07,WeatherDisplay:10.37,2013-05-20 19:46:00,
2013-05-20 14:51:00,70.8,58.0,29.55,South,190,16.1,16.1,64,0.00,BKN,,0.07,WeatherDisplay:10.37,2013-05-20 19:51:00,
2013-05-20 14:56:00,70.6,58.3,29.55,SSW,211,19.6,19.6,65,0.00,BKN,,0.07,WeatherDisplay:10.37,2013-05-20 19:56:00,
2013-05-20 15:01:00,70.8,58.4,29.55,SSW,202,15.0,15.0,65,0.00,BKN,,0.07,WeatherDisplay:10.37,2013-05-20 20:01:00,
2013-05-20 15:06:00,70.8,58.0,29.55,WSW,246,16.1,16.1,64,0.00,BKN,,0.07,WeatherDisplay:10.37,2013-05-20 20:06:00,
2013-05-20 15:11:00,70.1,57.4,29.55,South,184,19.6,19.6,64,0.00,BKN,,0.07,WeatherDisplay:10.37,2013-05-20 20:11:00,
2013-05-20 15:16:00,69.8,57.9,29.55,WSW,242,17.0,17.0,66,0.00,BKN,,0.07,WeatherDisplay:10.37,2013-05-20 20:16:00,
2013-05-20 15:21:00,69.4,58.0,29.55,SSW,206,19.6,19.6,67,0.00,BKN,,0.07,WeatherDisplay:10.37,2013-05-20 20:21:00,
2013-05-20 15:26:00,69.3,58.3,29.55,SSW,212,13.8,13.8,68,0.00,BKN,,0.07,WeatherDisplay:10.37,2013-05-20 20:26:00,
2013-05-20 15:31:00,69.6,59.0,29.56,SSW,192,11.5,11.5,69,0.00,BKN,,0.07,WeatherDisplay:10.37,2013-05-20 20:31:00,
2013-05-20 15:36:00,69.9,58.4,29.56,SW,217,20.0,20.0,67,0.00,BKN,,0.07,WeatherDisplay:10.37,2013-05-20 20:36:00,
2013-05-20 15:41:00,69.9,58.0,29.56,SSW,208,27.6,27.6,66,0.00,BKN,,0.07,WeatherDisplay:10.37,2013-05-20 20:41:00,
2013-05-20 15:46:00,70.1,58.2,29.56,SSW,196,17.3,17.3,66,0.00,BKN,,0.07,WeatherDisplay:10.37,2013-05-20 20:46:00,
2013-05-20 15:51:00,70.4,58.1,29.56,SSW,208,19.6,19.6,65,0.00,BKN,,0.07,WeatherDisplay:10.37,2013-05-20 20:51:00,
2013-05-20 15:56:00,69.9,58.4,29.56,SW,223,21.0,21.0,67,0.00,BKN,,0.07,WeatherDisplay:10.37,2013-05-20 20:56:00,
2013-05-20 16:01:00,68.9,57.5,29.56,South,183,26.5,26.5,67,0.00,BKN,,0.07,WeatherDisplay:10.37,2013-05-20 21:01:00,
2013-05-20 16:06:00,69.3,58.3,29.56,SSW,196,14.0,14.0,68,0.00,BKN,,0.07,WeatherDisplay:10.37,2013-05-20 21:06:00,
2013-05-20 16:11:00,70.3,58.8,29.56,South,182,10.4,10.4,67,0.00,BKN,,0.07,WeatherDisplay:10.37,2013-05-20 21:11:00,
2013-05-20 16:16:00,70.9,58.1,29.56,SW,217,12.7,13.7,64,0.00,BKN,,0.07,WeatherDisplay:10.37,2013-05-20 21:16:00,
2013-05-20 16:21:00,70.6,56.9,29.56,SW,219,26.5,26.5,62,0.00,BKN,,0.07,WeatherDisplay:10.37,2013-05-20 21:21:00,
2013-05-20 16:26:00,70.4,57.2,29.56,SSW,210,15.0,15.0,63,0.00,BKN,,0.07,WeatherDisplay:10.37,2013-05-20 21:26:00,
2013-05-20 16:31:00,70.8,57.6,29.57,South,178,15.0,15.0,63,0.00,SCT,,0.07,WeatherDisplay:10.37,2013-05-20 21:31:00,
2013-05-20 16:36:00,71.3,56.7,29.57,SSW,200,23.0,23.0,60,0.00,SCT,,0.07,WeatherDisplay:10.37,2013-05-20 21:36:00,
2013-05-20 16:41:00,70.6,56.5,29.56,SSW,208,21.9,21.9,61,0.00,SCT,,0.07,WeatherDisplay:10.37,2013-05-20 21:41:00,
2013-05-20 16:46:00,70.3,56.2,29.57,South,184,19.6,19.6,61,0.00,CLR,,0.07,WeatherDisplay:10.37,2013-05-20 21:46:00,
2013-05-20 16:51:00,70.3,56.2,29.57,SSW,209,15.0,15.0,61,0.00,CLR,,0.07,WeatherDisplay:10.37,2013-05-20 21:51:00,
2013-05-20 16:56:00,69.9,55.8,29.57,SSW,192,13.8,13.8,61,0.00,CLR,,0.07,WeatherDisplay:10.37,2013-05-20 21:56:00,
2013-05-20 17:01:00,70.4,55.8,29.57,SSW,202,25.0,25.0,60,0.00,CLR,,0.07,WeatherDisplay:10.37,2013-05-20 22:01:00,
2013-05-20 17:06:00,71.5,56.9,29.57,SW,223,11.5,11.5,60,0.00,CLR,,0.07,WeatherDisplay:10.37,2013-05-20 22:06:00,
2013-05-20 17:11:00,71.1,56.5,29.57,South,188,19.6,19.6,60,0.00,CLR,,0.07,WeatherDisplay:10.37,2013-05-20 22:11:00,
2013-05-20 17:16:00,71.3,57.2,29.57,SW,219,13.8,13.8,61,0.00,CLR,,0.07,WeatherDisplay:10.37,2013-05-20 22:16:00,
2013-05-20 17:21:00,72.1,57.4,29.57,SW,232,18.4,18.4,60,0.00,CLR,,0.07,WeatherDisplay:10.37,2013-05-20 22:21:00,
2013-05-20 17:26:00,72.8,57.2,29.57,South,191,10.0,10.0,58,0.00,CLR,,0.07,WeatherDisplay:10.37,2013-05-20 22:26:00,
2013-05-20 17:31:00,72.0,55.4,29.57,WNW,295,19.6,19.6,56,0.00,SCT,,0.07,WeatherDisplay:10.37,2013-05-20 22:31:00,
2013-05-20 17:36:00,71.8,55.3,29.57,SSW,210,16.1,16.1,56,0.00,SCT,,0.07,WeatherDisplay:10.37,2013-05-20 22:36:00,
2013-05-20 17:41:00,71.1,57.0,29.57,SSW,213,16.1,16.1,61,0.00,SCT,,0.07,WeatherDisplay:10.37,2013-05-20 22:41:00,
2013-05-20 17:46:00,70.4,56.8,29.58,SSW,210,19.6,19.6,62,0.00,BKN,,0.07,WeatherDisplay:10.37,2013-05-20 22:46:00,
2013-05-20 17:51:00,70.6,56.0,29.58,South,190,24.2,24.2,60,0.00,BKN,,0.07,WeatherDisplay:10.37,2013-05-20 22:51:00,
2013-05-20 17:56:00,70.1,56.5,29.58,South,186,20.7,20.7,62,0.00,BKN,,0.07,WeatherDisplay:10.37,2013-05-20 22:56:00,
2013-05-20 18:01:00,69.9,56.7,29.58,SSE,167,12.7,12.7,63,0.00,BKN,,0.07,WeatherDisplay:10.37,2013-05-20 23:01:00,
2013-05-20 18:06:00,69.9,56.7,29.58,SW,216,15.0,15.0,63,0.00,BKN,,0.07,WeatherDisplay:10.37,2013-05-20 23:06:00,
2013-05-20 18:11:00,69.8,57.1,29.58,SSE,165,12.7,12.7,64,0.00,BKN,,0.07,WeatherDisplay:10.37,2013-05-20 23:11:00,
2013-05-20 18:16:00,69.6,56.9,29.57,SSW,207,17.3,17.3,64,0.00,BKN,,0.07,WeatherDisplay:10.37,2013-05-20 23:16:00,
2013-05-20 18:21:00,69.4,56.7,29.57,South,178,16.1,16.1,64,0.00,BKN,,0.07,WeatherDisplay:10.37,2013-05-20 23:21:00,
2013-05-20 18:26:00,69.6,56.9,29.57,South,182,11.5,11.5,64,0.00,BKN,,0.07,WeatherDisplay:10.37,2013-05-20 23:26:00,
2013-05-20 18:31:00,69.6,56.4,29.57,SSW,199,12.7,12.7,63,0.00,OVC,,0.07,WeatherDisplay:10.37,2013-05-20 23:31:00,
2013-05-20 18:36:00,69.6,56.4,29.57,SSW,196,12.0,12.0,63,0.00,OVC,,0.07,WeatherDisplay:10.37,2013-05-20 23:36:00,
2013-05-20 18:41:00,69.6,56.9,29.57,SSW,204,12.7,12.7,64,0.00,OVC,,0.07,WeatherDisplay:10.37,2013-05-20 23:41:00,
2013-05-20 18:46:00,69.4,56.7,29.57,South,177,11.5,11.5,64,0.00,OVC,,0.07,WeatherDisplay:10.37,2013-05-20 23:46:00,
2013-05-20 18:51:00,69.3,56.6,29.57,South,169,15.0,15.0,64,0.00,OVC,,0.07,WeatherDisplay:10.37,2013-05-20 23:51:00,
2013-05-20 18:56:00,69.3,56.6,29.57,SSE,160,12.7,12.7,64,0.00,OVC,,0.07,WeatherDisplay:10.37,2013-05-20 23:56:00,
2013-05-20 19:01:00,69.3,56.6,29.57,SSW,194,13.8,13.8,64,0.00,BKN,,0.07,WeatherDisplay:10.37,2013-05-21 00:01:00,
2013-05-20 19:06:00,69.3,56.6,29.57,South,172,11.5,11.5,64,0.00,BKN,,0.07,WeatherDisplay:10.37,2013-05-21 00:06:00,
2013-05-20 19:11:00,69.1,56.4,29.57,SSE,163,11.5,11.5,64,0.00,BKN,,0.07,WeatherDisplay:10.37,2013-05-21 00:11:00,
2013-05-20 19:16:00,69.1,56.8,29.57,South,180,11.5,11.5,65,0.00,BKN,,0.07,WeatherDisplay:10.37,2013-05-21 00:16:00,
2013-05-20 19:21:00,68.9,56.6,29.57,SSW,200,12.7,12.7,65,0.00,BKN,,0.07,WeatherDisplay:10.37,2013-05-21 00:21:00,
2013-05-20 19:26:00,68.8,57.0,29.57,SW,219,11.5,11.5,66,0.00,BKN,,0.07,WeatherDisplay:10.37,2013-05-21 00:26:00,
2013-05-20 19:31:00,68.6,56.8,29.57,SE,146,4.6,5.2,66,0.00,SCT,,0.07,WeatherDisplay:10.37,2013-05-21 00:31:00,
2013-05-20 19:36:00,68.4,56.6,29.57,South,182,6.9,6.9,66,0.00,SCT,,0.07,WeatherDisplay:10.37,2013-05-21 00:36:00,
2013-05-20 19:41:00,68.4,56.6,29.57,South,171,10.4,10.4,66,0.00,SCT,,0.07,WeatherDisplay:10.37,2013-05-21 00:41:00,
2013-05-20 19:46:00,68.4,57.0,29.56,SSE,168,10.4,10.4,67,0.00,SCT,,0.07,WeatherDisplay:10.37,2013-05-21 00:46:00,
2013-05-20 19:51:00,68.3,57.3,29.56,SSE,159,6.9,6.9,68,0.00,SCT,,0.07,WeatherDisplay:10.37,2013-05-21 00:51:00,
2013-05-20 19:56:00,68.1,57.1,29.56,South,171,9.2,9.2,68,0.00,SCT,,0.07,WeatherDisplay:10.37,2013-05-21 00:56:00,
2013-05-20 20:01:00,68.1,57.1,29.56,SSE,167,9.2,9.2,68,0.00,BKN,,0.07,WeatherDisplay:10.37,2013-05-21 01:01:00,
2013-05-20 20:06:00,67.9,57.4,29.56,SSE,163,5.8,5.8,69,0.00,BKN,,0.07,WeatherDisplay:10.37,2013-05-21 01:06:00,
2013-05-20 20:11:00,67.9,57.4,29.56,SSE,163,4.6,4.6,69,0.00,BKN,,0.07,WeatherDisplay:10.37,2013-05-21 01:11:00,
2013-05-20 20:16:00,67.8,57.7,29.56,SSE,163,3.5,3.5,70,0.00,BKN,,0.07,WeatherDisplay:10.37,2013-05-21 01:16:00,
2013-05-20 20:21:00,67.4,57.7,29.56,SSE,163,3.5,3.5,71,0.00,BKN,,0.07,WeatherDisplay:10.37,2013-05-21 01:21:00,
2013-05-20 20:26:00,67.3,58.0,29.56,SSE,163,1.1,1.1,72,0.00,BKN,,0.07,WeatherDisplay:10.37,2013-05-21 01:26:00,
2013-05-20 20:31:00,67.1,57.8,29.56,SSE,163,0.0,0.0,72,0.00,OVC,,0.07,WeatherDisplay:10.37,2013-05-21 01:31:00,
2013-05-20 20:36:00,66.9,57.6,29.56,SSE,163,1.0,1.0,72,0.00,OVC,,0.07,WeatherDisplay:10.37,2013-05-21 01:36:00,
2013-05-20 20:41:00,66.9,57.6,29.56,SSE,163,2.3,0.0,72,0.00,OVC,,0.07,WeatherDisplay:10.37,2013-05-21 01:41:00,
2013-05-20 20:46:00,66.9,57.6,29.55,SSE,163,2.3,2.3,72,0.00,OVC,,0.07,WeatherDisplay:10.37,2013-05-21 01:46:00,
2013-05-20 20:51:00,66.9,57.6,29.55,SSE,163,2.3,2.3,72,0.00,OVC,,0.07,WeatherDisplay:10.37,2013-05-21 01:51:00,
2013-05-20 20:56:00,66.9,58.0,29.55,SSE,163,0.0,0.0,73,0.00,OVC,,0.07,WeatherDisplay:10.37,2013-05-21 01:56:00,
2013-05-20 21:01:00,66.9,58.0,29.55,SSE,163,0.0,0.0,73,0.00,OVC,,0.07,WeatherDisplay:10.37,2013-05-21 02:01:00,
2013-05-20 21:06:00,66.9,58.0,29.55,SSE,163,0.0,0.3,73,0.00,OVC,,0.07,WeatherDisplay:10.37,2013-05-21 02:06:00,
2013-05-20 21:11:00,66.8,57.9,29.55,SSE,163,1.1,0.0,73,0.00,OVC,,0.07,WeatherDisplay:10.37,2013-05-21 02:11:00,
2013-05-20 21:16:00,66.6,58.1,29.55,SSE,163,2.3,2.3,74,0.00,OVC,,0.07,WeatherDisplay:10.37,2013-05-21 02:16:00,
2013-05-20 21:21:00,66.6,58.1,29.55,SSE,163,0.0,0.0,74,0.00,OVC,,0.07,WeatherDisplay:10.37,2013-05-21 02:21:00,
2013-05-20 21:26:00,66.4,57.9,29.55,SSE,163,0.0,0.0,74,0.00,OVC,,0.07,WeatherDisplay:10.37,2013-05-21 02:26:00,
2013-05-20 21:31:00,66.4,57.9,29.56,SSE,163,3.5,3.5,74,0.00,OVC,,0.07,WeatherDisplay:10.37,2013-05-21 02:31:00,
2013-05-20 21:36:00,66.4,57.9,29.56,SSE,163,0.0,0.0,74,0.00,OVC,,0.07,WeatherDisplay:10.37,2013-05-21 02:36:00,
2013-05-20 21:41:00,66.4,57.9,29.56,SSE,163,0.0,0.0,74,0.00,OVC,,0.07,WeatherDisplay:10.37,2013-05-21 02:41:00,
2013-05-20 21:46:00,66.4,57.9,29.56,SSE,163,3.5,3.5,74,0.00,OVC,,0.07,WeatherDisplay:10.37,2013-05-21 02:46:00,
2013-05-20 21:51:00,66.4,58.2,29.56,SSE,163,2.3,2.3,75,0.00,OVC,,0.07,WeatherDisplay:10.37,2013-05-21 02:51:00,
2013-05-20 21:56:00,66.4,59.3,29.56,SSE,163,0.0,0.0,78,0.01,RA,,0.08,WeatherDisplay:10.37,2013-05-21 02:56:00,
2013-05-20 22:01:00,65.8,59.8,29.57,SSE,163,2.3,2.3,81,0.03,-RA,,0.10,WeatherDisplay:10.37,2013-05-21 03:01:00,
2013-05-20 22:06:00,65.0,59.7,29.57,SSE,163,0.0,0.0,83,0.04,-RA,,0.11,WeatherDisplay:10.37,2013-05-21 03:06:00,
2013-05-20 22:11:00,64.3,59.4,29.57,SSE,163,0.0,0.0,84,0.04,-RA,,0.11,WeatherDisplay:10.37,2013-05-21 03:11:00,
2013-05-20 22:16:00,63.9,59.6,29.56,SSE,163,2.3,2.3,86,0.04,-RA,,0.11,WeatherDisplay:10.37,2013-05-21 03:16:00,
2013-05-20 22:21:00,63.7,59.8,29.56,SSE,163,4.0,4.0,87,0.04,-RA,,0.12,WeatherDisplay:10.37,2013-05-21 03:21:00,
2013-05-20 22:26:00,62.3,57.4,29.56,SW,216,10.4,10.4,84,0.09,-RA,,0.16,WeatherDisplay:10.37,2013-05-21 03:26:00,
2013-05-20 22:31:00,59.9,55.7,29.60,SW,226,11.5,11.5,86,0.16,-RA,,0.24,WeatherDisplay:10.37,2013-05-21 03:31:00,
2013-05-20 22:36:00,58.9,55.0,29.60,WNW,301,1.1,1.1,87,0.20,-RA,,0.27,WeatherDisplay:10.37,2013-05-21 03:36:00,
2013-05-20 22:41:00,58.4,54.9,29.60,SW,223,3.5,3.5,88,0.21,-RA,,0.28,WeatherDisplay:10.37,2013-05-21 03:41:00,
2013-05-20 22:46:00,58.1,54.9,29.57,SW,219,2.3,2.3,89,0.23,RA,,0.31,WeatherDisplay:10.37,2013-05-21 03:46:00,
2013-05-20 22:51:00,58.0,54.8,29.57,SW,219,0.0,0.1,89,0.28,RA,,0.35,WeatherDisplay:10.37,2013-05-21 03:51:00,
2013-05-20 22:56:00,57.8,54.9,29.57,SW,219,0.0,0.0,90,0.29,RA,,0.37,WeatherDisplay:10.37,2013-05-21 03:56:00,
2013-05-20 23:01:00,57.8,55.2,29.55,SW,219,0.0,0.0,91,0.28,RA,,0.38,WeatherDisplay:10.37,2013-05-21 04:01:00,
2013-05-20 23:06:00,57.8,55.2,29.55,SW,219,2.3,2.3,91,0.27,RA,,0.38,WeatherDisplay:10.37,2013-05-21 04:06:00,
2013-05-20 23:11:00,57.6,55.3,29.55,SW,219,0.0,0.1,92,0.28,RA,,0.39,WeatherDisplay:10.37,2013-05-21 04:11:00,
2013-05-20 23:16:00,57.5,55.2,29.55,SW,219,2.3,2.3,92,0.28,RA,,0.39,WeatherDisplay:10.37,2013-05-21 04:16:00,
2013-05-20 23:21:00,57.5,55.2,29.53,SW,219,0.0,0.0,92,0.28,OVC,,0.39,WeatherDisplay:10.37,2013-05-21 04:21:00,
2013-05-20 23:26:00,57.6,55.3,29.53,SW,219,0.0,0.0,92,0.24,OVC,,0.39,WeatherDisplay:10.37,2013-05-21 04:26:00,
2013-05-20 23:31:00,57.6,55.3,29.53,SW,219,0.0,0.0,92,0.16,-RA,,0.39,WeatherDisplay:10.37,2013-05-21 04:31:00,
2013-05-20 23:36:00,57.6,55.6,29.53,SW,219,0.0,0.0,93,0.12,-RA,,0.39,WeatherDisplay:10.37,2013-05-21 04:36:00,
2013-05-20 23:41:00,57.6,55.6,29.53,SW,219,0.0,0.0,93,0.11,-RA,,0.39,WeatherDisplay:10.37,2013-05-21 04:41:00,
2013-05-20 23:46:00,57.8,55.8,29.55,SW,219,0.0,0.0,93,0.09,-RA,,0.39,WeatherDisplay:10.37,2013-05-21 04:46:00,
2013-05-20 23:51:00,57.8,55.8,29.55,SW,219,1.1,1.1,93,0.04,-RA,,0.39,WeatherDisplay:10.37,2013-05-21 04:51:00,
2013-05-20 23:56:00,58.0,56.3,29.55,SSW,194,3.5,3.5,94,0.02,-RA,,0.39,WeatherDisplay:10.37,2013-05-21 04:56:00,